AAH202 PHOG-PHTO
Flight info
| Callsign | AAH202 |
|---|---|
| Flight time | 0h 27m |
| Altitude | 17000 |
| Route | ONOHI2 BARBY PARIS V15 ITO |
| Aircraft | B736/M-SDE2E3FGHIRWXY/LB1 |
Departure
| Time | 2026-04-26 00:13 |
|---|---|
| Airport | Kahului International Airport (PHOG) |
Arrival
| Time | 2026-04-26 00:40 |
|---|---|
| Airport | Hilo International Airport (PHTO) |
| Time | Latitude | Longitude | Altitude | Speed | Heading |
|---|---|---|---|---|---|
| 2026-04-25 23:57 | 20.89252 | -156.43700 | 0 ft | 0 kts | 308° |
| 2026-04-26 00:06 | 20.89247 | -156.43693 | 53 ft | 2 kts | 309° |
| 2026-04-26 00:06 | 20.89238 | -156.43682 | 47 ft | 2 kts | 311° |
| 2026-04-26 00:06 | 20.89229 | -156.43671 | 48 ft | 2 kts | 316° |
| 2026-04-26 00:07 | 20.89219 | -156.43662 | 52 ft | 2 kts | 324° |
| 2026-04-26 00:07 | 20.89210 | -156.43656 | 48 ft | 1 kts | 343° |
| 2026-04-26 00:07 | 20.89202 | -156.43655 | 49 ft | 2 kts | 6° |
| 2026-04-26 00:07 | 20.89192 | -156.43657 | 54 ft | 1 kts | 30° |
| 2026-04-26 00:08 | 20.89187 | -156.43660 | 53 ft | 0 kts | 35° |
| 2026-04-26 00:09 | 20.89189 | -156.43654 | 54 ft | 1 kts | 71° |
| 2026-04-26 00:09 | 20.89184 | -156.43642 | 53 ft | 2 kts | 118° |
| 2026-04-26 00:09 | 20.89173 | -156.43631 | 53 ft | 3 kts | 144° |
| 2026-04-26 00:09 | 20.89146 | -156.43624 | 55 ft | 7 kts | 184° |
| 2026-04-26 00:10 | 20.89096 | -156.43658 | 54 ft | 9 kts | 213° |
| 2026-04-26 00:10 | 20.89043 | -156.43697 | 60 ft | 9 kts | 214° |
| 2026-04-26 00:10 | 20.88996 | -156.43710 | 56 ft | 2 kts | 145° |
| 2026-04-26 00:10 | 20.88993 | -156.43707 | 60 ft | 0 kts | 135° |
| 2026-04-26 00:11 | 20.88991 | -156.43705 | 60 ft | 2 kts | 135° |
| 2026-04-26 00:11 | 20.88958 | -156.43661 | 59 ft | 11 kts | 125° |
| 2026-04-26 00:11 | 20.88935 | -156.43622 | 59 ft | 0 kts | 102° |
| 2026-04-26 00:12 | 20.88948 | -156.43607 | 61 ft | 5 kts | 38° |
| 2026-04-26 00:12 | 20.88954 | -156.43602 | 59 ft | 0 kts | 35° |
| 2026-04-26 00:12 | 20.89103 | -156.43492 | 55 ft | 70 kts | 34° |
| 2026-04-26 00:12 | 20.89734 | -156.43022 | 136 ft | 140 kts | 33° |
| 2026-04-26 00:13 | 20.90596 | -156.42384 | 893 ft | 161 kts | 33° |
| 2026-04-26 00:13 | 20.91597 | -156.41678 | 1752 ft | 185 kts | 34° |
| 2026-04-26 00:13 | 20.92699 | -156.40870 | 2491 ft | 204 kts | 45° |
| 2026-04-26 00:13 | 20.93410 | -156.39446 | 2891 ft | 239 kts | 78° |
| 2026-04-26 00:14 | 20.93373 | -156.37620 | 3735 ft | 255 kts | 103° |
| 2026-04-26 00:14 | 20.92619 | -156.35889 | 4879 ft | 258 kts | 121° |
| 2026-04-26 00:14 | 20.91620 | -156.34281 | 6017 ft | 263 kts | 123° |
| 2026-04-26 00:14 | 20.90568 | -156.32635 | 6974 ft | 271 kts | 124° |
| 2026-04-26 00:15 | 20.89498 | -156.30976 | 8095 ft | 273 kts | 123° |
| 2026-04-26 00:15 | 20.88821 | -156.29817 | 8638 ft | 282 kts | 114° |
| 2026-04-26 00:15 | 20.88323 | -156.27796 | 9711 ft | 282 kts | 96° |
| 2026-04-26 00:15 | 20.88140 | -156.25681 | 10549 ft | 293 kts | 94° |
| 2026-04-26 00:16 | 20.87993 | -156.23409 | 10865 ft | 321 kts | 93° |
| 2026-04-26 00:16 | 20.87840 | -156.20930 | 11200 ft | 344 kts | 93° |
| 2026-04-26 00:16 | 20.87672 | -156.18356 | 12022 ft | 348 kts | 93° |
| 2026-04-26 00:16 | 20.87493 | -156.15759 | 12886 ft | 352 kts | 94° |
| 2026-04-26 00:17 | 20.87306 | -156.13123 | 13635 ft | 359 kts | 93° |
| 2026-04-26 00:17 | 20.87111 | -156.10441 | 14396 ft | 363 kts | 93° |
| 2026-04-26 00:17 | 20.86912 | -156.07748 | 15165 ft | 365 kts | 93° |
| 2026-04-26 00:17 | 20.86712 | -156.05045 | 15845 ft | 370 kts | 93° |
| 2026-04-26 00:18 | 20.86505 | -156.02255 | 16585 ft | 374 kts | 93° |
| 2026-04-26 00:18 | 20.86209 | -155.99520 | 17267 ft | 380 kts | 104° |
| 2026-04-26 00:18 | 20.85110 | -155.96939 | 17940 ft | 387 kts | 123° |
| 2026-04-26 00:18 | 20.83322 | -155.94717 | 18639 ft | 391 kts | 132° |
| 2026-04-26 00:19 | 20.81442 | -155.92650 | 19209 ft | 396 kts | 133° |
| 2026-04-26 00:19 | 20.79485 | -155.90549 | 19824 ft | 400 kts | 134° |
| 2026-04-26 00:19 | 20.77514 | -155.88437 | 20430 ft | 404 kts | 134° |
| 2026-04-26 00:19 | 20.75524 | -155.86295 | 20947 ft | 408 kts | 133° |
| 2026-04-26 00:20 | 20.73515 | -155.84115 | 21040 ft | 418 kts | 133° |
| 2026-04-26 00:20 | 20.71456 | -155.81866 | 21050 ft | 425 kts | 133° |
| 2026-04-26 00:20 | 20.69377 | -155.79588 | 21051 ft | 429 kts | 133° |
| 2026-04-26 00:20 | 20.67296 | -155.77306 | 21038 ft | 428 kts | 133° |
| 2026-04-26 00:21 | 20.65221 | -155.75028 | 21042 ft | 427 kts | 133° |
| 2026-04-26 00:21 | 20.63160 | -155.72766 | 21038 ft | 426 kts | 133° |
| 2026-04-26 00:21 | 20.61087 | -155.70491 | 21042 ft | 426 kts | 133° |
| 2026-04-26 00:21 | 20.59049 | -155.68256 | 21029 ft | 420 kts | 133° |
| 2026-04-26 00:22 | 20.57034 | -155.66048 | 21030 ft | 412 kts | 133° |
| 2026-04-26 00:22 | 20.55046 | -155.63870 | 21031 ft | 408 kts | 133° |
| 2026-04-26 00:22 | 20.53063 | -155.61698 | 21042 ft | 410 kts | 133° |
| 2026-04-26 00:22 | 20.51071 | -155.59517 | 20834 ft | 412 kts | 133° |
| 2026-04-26 00:23 | 20.49076 | -155.57334 | 20362 ft | 409 kts | 133° |
| 2026-04-26 00:23 | 20.47095 | -155.55166 | 19811 ft | 405 kts | 133° |
| 2026-04-26 00:23 | 20.45144 | -155.53031 | 19274 ft | 401 kts | 133° |
| 2026-04-26 00:23 | 20.43205 | -155.50912 | 18703 ft | 398 kts | 134° |
| 2026-04-26 00:24 | 20.41282 | -155.48810 | 18105 ft | 395 kts | 134° |
| 2026-04-26 00:24 | 20.39367 | -155.46719 | 17500 ft | 392 kts | 134° |
| 2026-04-26 00:24 | 20.37472 | -155.44650 | 16891 ft | 389 kts | 134° |
| 2026-04-26 00:24 | 20.35591 | -155.42596 | 16311 ft | 386 kts | 134° |
| 2026-04-26 00:25 | 20.33715 | -155.40549 | 15671 ft | 385 kts | 133° |
| 2026-04-26 00:25 | 20.31853 | -155.38518 | 15105 ft | 382 kts | 134° |
| 2026-04-26 00:25 | 20.30001 | -155.36499 | 14547 ft | 379 kts | 134° |
| 2026-04-26 00:25 | 20.28162 | -155.34494 | 13988 ft | 377 kts | 133° |
| 2026-04-26 00:26 | 20.26368 | -155.32539 | 13401 ft | 371 kts | 133° |
| 2026-04-26 00:26 | 20.24571 | -155.30582 | 12851 ft | 367 kts | 134° |
| 2026-04-26 00:26 | 20.22774 | -155.28623 | 12300 ft | 364 kts | 134° |
| 2026-04-26 00:26 | 20.21037 | -155.26732 | 11773 ft | 360 kts | 134° |
| 2026-04-26 00:27 | 20.19293 | -155.24835 | 11251 ft | 357 kts | 134° |
| 2026-04-26 00:27 | 20.17529 | -155.22990 | 10761 ft | 354 kts | 140° |
| 2026-04-26 00:27 | 20.15558 | -155.21532 | 10582 ft | 341 kts | 152° |
| 2026-04-26 00:27 | 20.13433 | -155.20485 | 10422 ft | 328 kts | 157° |
| 2026-04-26 00:28 | 20.11378 | -155.19546 | 10281 ft | 317 kts | 157° |
| 2026-04-26 00:28 | 20.09383 | -155.18632 | 10147 ft | 306 kts | 157° |
| 2026-04-26 00:28 | 20.07466 | -155.17741 | 10020 ft | 296 kts | 157° |
| 2026-04-26 00:28 | 20.05601 | -155.16866 | 9728 ft | 293 kts | 157° |
| 2026-04-26 00:29 | 20.03747 | -155.15992 | 9404 ft | 290 kts | 157° |
| 2026-04-26 00:29 | 20.01906 | -155.15124 | 9084 ft | 288 kts | 156° |
| 2026-04-26 00:29 | 20.00162 | -155.14097 | 8741 ft | 287 kts | 139° |
| 2026-04-26 00:29 | 19.98988 | -155.12412 | 8434 ft | 285 kts | 112° |
| 2026-04-26 00:30 | 19.98613 | -155.10372 | 8129 ft | 281 kts | 88° |
| 2026-04-26 00:30 | 19.98857 | -155.08350 | 7842 ft | 279 kts | 79° |
| 2026-04-26 00:30 | 19.99209 | -155.06325 | 7516 ft | 278 kts | 78° |
| 2026-04-26 00:30 | 19.99257 | -155.04290 | 7174 ft | 278 kts | 103° |
| 2026-04-26 00:31 | 19.98369 | -155.02497 | 6884 ft | 276 kts | 131° |
| 2026-04-26 00:31 | 19.96901 | -155.01197 | 6601 ft | 274 kts | 144° |
| 2026-04-26 00:31 | 19.95322 | -155.00061 | 6275 ft | 274 kts | 146° |
| 2026-04-26 00:31 | 19.93734 | -154.98949 | 5945 ft | 273 kts | 146° |
| 2026-04-26 00:32 | 19.92150 | -154.97839 | 5623 ft | 272 kts | 145° |
| 2026-04-26 00:32 | 19.90574 | -154.96724 | 5317 ft | 271 kts | 144° |
| 2026-04-26 00:32 | 19.87482 | -154.94521 | 4696 ft | 268 kts | 144° |
| 2026-04-26 00:33 | 19.85937 | -154.93415 | 4419 ft | 265 kts | 144° |
| 2026-04-26 00:33 | 19.84457 | -154.92354 | 4367 ft | 248 kts | 144° |
| 2026-04-26 00:33 | 19.83074 | -154.91363 | 4260 ft | 231 kts | 144° |
| 2026-04-26 00:33 | 19.81786 | -154.90438 | 4132 ft | 216 kts | 143° |
| 2026-04-26 00:34 | 19.80582 | -154.89573 | 4022 ft | 201 kts | 143° |
| 2026-04-26 00:34 | 19.79464 | -154.88770 | 3868 ft | 188 kts | 143° |
| 2026-04-26 00:34 | 19.78373 | -154.87986 | 3538 ft | 186 kts | 143° |
| 2026-04-26 00:34 | 19.77329 | -154.87237 | 3378 ft | 176 kts | 143° |
| 2026-04-26 00:35 | 19.76340 | -154.86528 | 3293 ft | 170 kts | 143° |
| 2026-04-26 00:35 | 19.75362 | -154.85824 | 3163 ft | 171 kts | 142° |
| 2026-04-26 00:35 | 19.74260 | -154.85395 | 2959 ft | 174 kts | 176° |
| 2026-04-26 00:35 | 19.73101 | -154.85691 | 2772 ft | 174 kts | 211° |
| 2026-04-26 00:36 | 19.72270 | -154.86652 | 2601 ft | 178 kts | 246° |
| 2026-04-26 00:36 | 19.72055 | -154.87918 | 2438 ft | 173 kts | 274° |
| 2026-04-26 00:36 | 19.72088 | -154.89188 | 2245 ft | 171 kts | 272° |
| 2026-04-26 00:36 | 19.72113 | -154.90394 | 2052 ft | 161 kts | 274° |
| 2026-04-26 00:37 | 19.72136 | -154.91563 | 1877 ft | 156 kts | 273° |
| 2026-04-26 00:37 | 19.72141 | -154.92709 | 1681 ft | 153 kts | 273° |
| 2026-04-26 00:37 | 19.72142 | -154.93842 | 1534 ft | 150 kts | 271° |
| 2026-04-26 00:37 | 19.72141 | -154.94929 | 1348 ft | 149 kts | 272° |
| 2026-04-26 00:38 | 19.72141 | -154.96054 | 1160 ft | 153 kts | 271° |
| 2026-04-26 00:38 | 19.72149 | -154.97182 | 1013 ft | 154 kts | 271° |
| 2026-04-26 00:38 | 19.72143 | -154.98330 | 808 ft | 157 kts | 272° |
| 2026-04-26 00:38 | 19.72145 | -154.99466 | 602 ft | 151 kts | 273° |
| 2026-04-26 00:39 | 19.72146 | -155.00549 | 437 ft | 144 kts | 274° |
| 2026-04-26 00:39 | 19.72145 | -155.01620 | 301 ft | 145 kts | 274° |
| 2026-04-26 00:39 | 19.72146 | -155.02694 | 106 ft | 145 kts | 274° |
| 2026-04-26 00:39 | 19.72151 | -155.03688 | 46 ft | 120 kts | 269° |
| 2026-04-26 00:40 | 19.72146 | -155.04418 | 38 ft | 77 kts | 270° |
| 2026-04-26 00:40 | 19.72147 | -155.04820 | 36 ft | 34 kts | 270° |
| 2026-04-26 00:40 | 19.72118 | -155.04907 | 36 ft | 10 kts | 216° |
| 2026-04-26 00:40 | 19.72046 | -155.04917 | 37 ft | 10 kts | 180° |
| 2026-04-26 00:41 | 19.72044 | -155.04917 | 37 ft | 0 kts | 180° |
| 2026-04-26 00:42 | 19.72039 | -155.04917 | 37 ft | 2 kts | 180° |
| 2026-04-26 00:42 | 19.72020 | -155.04908 | 37 ft | 5 kts | 136° |
| 2026-04-26 00:42 | 19.72016 | -155.04855 | 37 ft | 10 kts | 90° |
| 2026-04-26 00:42 | 19.72015 | -155.04762 | 37 ft | 15 kts | 90° |
| 2026-04-26 00:43 | 19.72016 | -155.04645 | 38 ft | 16 kts | 90° |
| 2026-04-26 00:43 | 19.72015 | -155.04530 | 39 ft | 15 kts | 90° |
| 2026-04-26 00:43 | 19.72015 | -155.04421 | 39 ft | 15 kts | 90° |
| 2026-04-26 00:43 | 19.72015 | -155.04315 | 40 ft | 14 kts | 90° |
| 2026-04-26 00:44 | 19.72015 | -155.04215 | 40 ft | 13 kts | 90° |
| 2026-04-26 00:44 | 19.72014 | -155.04119 | 41 ft | 13 kts | 90° |
| 2026-04-26 00:44 | 19.72015 | -155.04025 | 42 ft | 13 kts | 89° |
| 2026-04-26 00:44 | 19.72015 | -155.03933 | 42 ft | 12 kts | 90° |
| 2026-04-26 00:45 | 19.72016 | -155.03844 | 43 ft | 12 kts | 90° |
| 2026-04-26 00:45 | 19.72016 | -155.03757 | 43 ft | 12 kts | 90° |
| 2026-04-26 00:45 | 19.72009 | -155.03685 | 41 ft | 8 kts | 127° |
| 2026-04-26 00:45 | 19.71958 | -155.03674 | 43 ft | 8 kts | 180° |
| 2026-04-26 00:46 | 19.71906 | -155.03674 | 43 ft | 8 kts | 180° |
| 2026-04-26 00:46 | 19.71844 | -155.03674 | 43 ft | 10 kts | 180° |
| 2026-04-26 00:46 | 19.71772 | -155.03675 | 43 ft | 10 kts | 181° |
| 2026-04-26 00:46 | 19.71701 | -155.03675 | 42 ft | 10 kts | 180° |
| 2026-04-26 00:47 | 19.71648 | -155.03708 | 42 ft | 10 kts | 255° |
| 2026-04-26 00:47 | 19.71645 | -155.03779 | 42 ft | 10 kts | 271° |
| 2026-04-26 00:47 | 19.71645 | -155.03831 | 41 ft | 0 kts | 251° |
| 2026-04-26 00:47 | 19.71642 | -155.03833 | 41 ft | 1 kts | 223° |
| 2026-04-26 00:48 | 19.71630 | -155.03836 | 41 ft | 5 kts | 188° |
| 2026-04-26 00:48 | 19.71580 | -155.03836 | 41 ft | 9 kts | 179° |
| 2026-04-26 00:48 | 19.71559 | -155.03836 | 41 ft | 0 kts | 180° |